Time;durP1;ratioP1;P1;durP2;ratioP2;P2;SDS_P1;SDS_P2;PMS_P1;PMS_P2;Temp;Humidity;BMP_temperature;BMP_pressure;BME280_temperature;BME280_humidity;BME280_pressure;Samples;Min_cycle;Max_cycle;Signal;HPM_P1;HPM_P2
2023/06/13 00:02:02;;;;;;;6.95;2.80;;;;;;;;;;5034613;28;20866;-71
2023/06/13 00:04:30;;;;;;;7.32;2.40;;;;;;;;;;5033513;28;20044;-72
2023/06/13 00:07:00;;;;;;;7.60;2.72;;;;;;;;;;5032776;28;20037;-72
2023/06/13 00:09:28;;;;;;;11.80;2.65;;;;;;;;;;5032744;28;20029;-73
2023/06/13 00:11:54;;;;;;;6.38;2.75;;;;;;;;;;5033080;28;20108;-72
2023/06/13 00:14:23;;;;;;;6.93;2.47;;;;;;;;;;5033627;28;20459;-71
2023/06/13 00:16:52;;;;;;;8.90;2.40;;;;;;;;;;5032762;28;20033;-72
2023/06/13 00:19:19;;;;;;;11.38;2.63;;;;;;;;;;5034552;28;20029;-73
2023/06/13 00:21:45;;;;;;;6.00;2.92;;;;;;;;;;5033960;28;20025;-72
2023/06/13 00:24:11;;;;;;;6.53;2.20;;;;;;;;;;5032740;28;20028;-72
2023/06/13 00:26:37;;;;;;;6.35;2.55;;;;;;;;;;5032539;28;20025;-72
2023/06/13 00:29:03;;;;;;;5.13;2.30;;;;;;;;;;5032808;28;20105;-72
2023/06/13 00:31:29;;;;;;;5.13;2.42;;;;;;;;;;5032567;28;20406;-71
2023/06/13 00:33:56;;;;;;;6.68;2.55;;;;;;;;;;5032310;28;20036;-72
2023/06/13 00:36:24;;;;;;;5.15;2.28;;;;;;;;;;5032553;28;20104;-72
2023/06/13 00:38:50;;;;;;;4.78;2.55;;;;;;;;;;5032725;28;20028;-72
2023/06/13 00:41:16;;;;;;;9.35;2.33;;;;;;;;;;5032338;28;20055;-72
2023/06/13 00:43:43;;;;;;;4.40;2.15;;;;;;;;;;5033720;28;20434;-72
2023/06/13 00:46:09;;;;;;;8.50;2.60;;;;;;;;;;5033393;28;20395;-71
2023/06/13 00:48:36;;;;;;;3.75;2.40;;;;;;;;;;5033666;28;20030;-72
2023/06/13 00:51:02;;;;;;;5.07;2.25;;;;;;;;;;5035793;28;20025;-71
2023/06/13 00:53:31;;;;;;;4.43;1.73;;;;;;;;;;5036745;28;20403;-71
2023/06/13 00:55:57;;;;;;;7.65;2.28;;;;;;;;;;5036911;28;20024;-72
2023/06/13 00:58:23;;;;;;;3.83;2.20;;;;;;;;;;5032304;28;20446;-71
2023/06/13 01:00:52;;;;;;;4.13;1.95;;;;;;;;;;5032268;28;20168;-72
2023/06/13 01:03:18;;;;;;;9.77;2.40;;;;;;;;;;5031856;28;20033;-72
2023/06/13 01:05:45;;;;;;;11.40;2.50;;;;;;;;;;5033253;28;20418;-71
2023/06/13 01:08:12;;;;;;;8.98;2.65;;;;;;;;;;5033214;28;20033;-71
2023/06/13 01:10:40;;;;;;;7.03;2.50;;;;;;;;;;5032049;28;20144;-72
2023/06/13 01:13:08;;;;;;;11.00;2.40;;;;;;;;;;5031037;28;20028;-72
2023/06/13 01:15:37;;;;;;;6.68;2.33;;;;;;;;;;5032108;28;20351;-71
2023/06/13 01:18:05;;;;;;;5.68;1.95;;;;;;;;;;5032769;28;20087;-72
2023/06/13 01:20:32;;;;;;;11.90;2.63;;;;;;;;;;5035376;28;20026;-74
2023/06/13 01:23:17;;;;;;;8.27;2.60;;;;;;;;;;5036359;28;20026;-72
2023/06/13 01:25:52;;;;;;;7.45;2.35;;;;;;;;;;5032412;28;20025;-71
2023/06/13 01:28:20;;;;;;;5.95;2.50;;;;;;;;;;5040020;28;20017;-70
2023/06/13 01:30:46;;;;;;;10.00;2.40;;;;;;;;;;5037202;28;20040;-71
2023/06/13 01:33:13;;;;;;;5.53;2.45;;;;;;;;;;5032031;28;20399;-75
2023/06/13 01:35:39;;;;;;;5.40;2.22;;;;;;;;;;5053152;28;20033;-72
2023/06/13 01:38:05;;;;;;;8.93;2.40;;;;;;;;;;5053761;28;20025;-72
2023/06/13 01:40:31;;;;;;;6.22;2.40;;;;;;;;;;5031016;28;20026;-72
2023/06/13 01:42:57;;;;;;;11.63;2.65;;;;;;;;;;5030522;28;20026;-72
2023/06/13 01:45:24;;;;;;;5.40;2.33;;;;;;;;;;5031265;28;20697;-72
2023/06/13 01:48:11;;;;;;;9.65;2.33;;;;;;;;;;5031149;28;20156;-71
2023/06/13 01:50:57;;;;;;;10.77;2.67;;;;;;;;;;5031201;28;20129;-71
2023/06/13 01:53:45;;;;;;;6.93;2.80;;;;;;;;;;5029296;28;20124;-72
2023/06/13 01:56:14;;;;;;;6.22;2.20;;;;;;;;;;5028610;28;20040;-72
2023/06/13 01:58:43;;;;;;;6.88;2.60;;;;;;;;;;5029912;28;20056;-71
2023/06/13 02:01:09;;;;;;;6.60;2.20;;;;;;;;;;5030867;28;20033;-71
2023/06/13 02:03:36;;;;;;;9.07;2.28;;;;;;;;;;5030485;28;20467;-72
2023/06/13 02:06:02;;;;;;;8.35;2.60;;;;;;;;;;5030769;28;20487;-72
2023/06/13 02:08:28;;;;;;;4.30;2.28;;;;;;;;;;5030136;28;20036;-72
2023/06/13 02:10:55;;;;;;;7.45;2.55;;;;;;;;;;5029535;28;20025;-71
2023/06/13 02:13:21;;;;;;;7.18;2.50;;;;;;;;;;5028969;28;20033;-71
2023/06/13 02:15:47;;;;;;;8.63;3.10;;;;;;;;;;5009896;28;20531;-72
2023/06/13 02:18:13;;;;;;;13.43;3.50;;;;;;;;;;5010290;28;20034;-72
2023/06/13 02:20:38;;;;;;;9.50;2.92;;;;;;;;;;5027865;28;20021;-71
2023/06/13 02:23:04;;;;;;;6.72;3.22;;;;;;;;;;5029512;28;20033;-72
2023/06/13 02:25:31;;;;;;;8.80;2.72;;;;;;;;;;5034104;28;20182;-73
2023/06/13 02:27:57;;;;;;;4.60;2.67;;;;;;;;;;5036718;28;20029;-75
2023/06/13 02:30:23;;;;;;;8.15;2.83;;;;;;;;;;5036554;28;20087;-74
2023/06/13 02:32:50;;;;;;;6.25;2.50;;;;;;;;;;5034468;28;20475;-73
2023/06/13 02:35:18;;;;;;;9.20;2.60;;;;;;;;;;5036105;28;20148;-71
2023/06/13 02:37:44;;;;;;;6.63;2.60;;;;;;;;;;5035957;28;20025;-71
2023/06/13 02:40:11;;;;;;;4.65;2.78;;;;;;;;;;5034294;28;20387;-72
2023/06/13 02:42:37;;;;;;;8.70;2.75;;;;;;;;;;5034105;28;20025;-72
2023/06/13 02:45:03;;;;;;;9.73;3.10;;;;;;;;;;5034584;28;20025;-72
2023/06/13 02:47:29;;;;;;;10.75;4.40;;;;;;;;;;5034486;28;20029;-72
2023/06/13 02:49:55;;;;;;;4.35;2.85;;;;;;;;;;5034289;28;20382;-72
2023/06/13 02:52:21;;;;;;;15.57;3.17;;;;;;;;;;5033338;28;20037;-72
2023/06/13 02:54:48;;;;;;;7.45;3.15;;;;;;;;;;5034015;28;20053;-73
2023/06/13 02:57:14;;;;;;;7.05;3.10;;;;;;;;;;5034415;28;20036;-73
2023/06/13 02:59:40;;;;;;;10.43;2.88;;;;;;;;;;5033970;28;20399;-76
2023/06/13 03:02:06;;;;;;;7.90;3.10;;;;;;;;;;5034005;28;20040;-72
2023/06/13 03:04:32;;;;;;;4.38;2.80;;;;;;;;;;5032942;28;20032;-71
2023/06/13 03:07:00;;;;;;;8.20;2.90;;;;;;;;;;5033027;28;20025;-72
2023/06/13 03:09:26;;;;;;;9.23;3.13;;;;;;;;;;5033782;28;20037;-71
2023/06/13 03:11:52;;;;;;;9.63;3.83;;;;;;;;;;5032755;28;20033;-72
2023/06/13 03:14:17;;;;;;;6.65;2.65;;;;;;;;;;5033757;28;20029;-72
2023/06/13 03:16:43;;;;;;;9.63;2.85;;;;;;;;;;5034095;28;20114;-73
2023/06/13 03:19:10;;;;;;;8.30;3.10;;;;;;;;;;5032530;28;20034;-71
2023/06/13 03:21:36;;;;;;;10.88;3.10;;;;;;;;;;5032510;28;20049;-71
2023/06/13 03:24:02;;;;;;;7.43;3.97;;;;;;;;;;5031956;28;20118;-72
2023/06/13 03:26:28;;;;;;;13.63;4.68;;;;;;;;;;5032626;28;20455;-72
2023/06/13 03:28:54;;;;;;;15.63;5.30;;;;;;;;;;5032614;28;20026;-70
2023/06/13 03:31:20;;;;;;;14.27;4.78;;;;;;;;;;5032836;28;20443;-72
2023/06/13 03:33:46;;;;;;;10.07;4.03;;;;;;;;;;5031983;28;20482;-72
2023/06/13 03:36:12;;;;;;;16.33;4.82;;;;;;;;;;5032196;28;20040;-72
2023/06/13 03:38:38;;;;;;;8.07;3.55;;;;;;;;;;5032593;28;20021;-71
2023/06/13 03:41:04;;;;;;;8.45;3.60;;;;;;;;;;5032761;28;20433;-73
2023/06/13 03:43:30;;;;;;;9.57;3.58;;;;;;;;;;5031751;28;20114;-72
2023/06/13 03:45:56;;;;;;;15.02;4.82;;;;;;;;;;5032761;28;20025;-71
2023/06/13 03:48:22;;;;;;;15.13;3.42;;;;;;;;;;5032484;28;20028;-72
2023/06/13 03:50:48;;;;;;;10.65;3.80;;;;;;;;;;5031589;28;20100;-73
2023/06/13 03:53:14;;;;;;;12.60;4.05;;;;;;;;;;5031476;28;20509;-72
2023/06/13 03:55:40;;;;;;;16.38;5.15;;;;;;;;;;5031849;28;20029;-72
2023/06/13 03:58:06;;;;;;;11.00;4.07;;;;;;;;;;5032987;28;20036;-73
2023/06/13 04:00:32;;;;;;;11.38;3.92;;;;;;;;;;5032684;28;20029;-71
2023/06/13 04:03:00;;;;;;;6.70;3.63;;;;;;;;;;5032305;28;20022;-72
2023/06/13 04:05:26;;;;;;;11.93;3.78;;;;;;;;;;5033071;28;20017;-71
2023/06/13 04:07:54;;;;;;;18.58;3.90;;;;;;;;;;5032822;28;20017;-71
2023/06/13 04:10:21;;;;;;;9.85;4.13;;;;;;;;;;5032657;28;20030;-72
2023/06/13 04:12:47;;;;;;;11.40;3.80;;;;;;;;;;5032408;28;20037;-71
2023/06/13 04:15:13;;;;;;;11.90;4.50;;;;;;;;;;5033696;28;20030;-72
2023/06/13 04:17:39;;;;;;;12.25;4.00;;;;;;;;;;5033728;28;20506;-72
2023/06/13 04:20:05;;;;;;;9.90;3.65;;;;;;;;;;5033251;28;20537;-72
2023/06/13 04:22:31;;;;;;;8.98;3.20;;;;;;;;;;5032298;28;20029;-71
2023/06/13 04:24:57;;;;;;;9.02;3.88;;;;;;;;;;5032801;28;20083;-72
2023/06/13 04:27:28;;;;;;;12.57;3.78;;;;;;;;;;5032292;28;20123;-72
2023/06/13 04:29:55;;;;;;;13.73;4.40;;;;;;;;;;5032362;28;20028;-73
2023/06/13 04:32:23;;;;;;;10.98;4.22;;;;;;;;;;5032240;28;20045;-72
2023/06/13 04:34:53;;;;;;;14.77;4.50;;;;;;;;;;5033432;28;20043;-72
2023/06/13 04:37:25;;;;;;;11.40;4.43;;;;;;;;;;5032535;28;20029;-72
2023/06/13 04:39:55;;;;;;;20.92;4.50;;;;;;;;;;5032212;28;20517;-72
2023/06/13 04:42:27;;;;;;;12.00;4.38;;;;;;;;;;5031852;28;20513;-71
2023/06/13 04:44:53;;;;;;;15.70;4.55;;;;;;;;;;5032415;28;20036;-72
2023/06/13 04:47:20;;;;;;;8.30;3.70;;;;;;;;;;5031922;28;20033;-73
2023/06/13 04:49:46;;;;;;;11.48;3.67;;;;;;;;;;5031933;28;20032;-71
2023/06/13 04:52:14;;;;;;;10.85;3.78;;;;;;;;;;5032161;28;20485;-72
2023/06/13 04:54:40;;;;;;;10.05;3.53;;;;;;;;;;5031802;28;20041;-72
2023/06/13 04:57:06;;;;;;;7.13;3.58;;;;;;;;;;5031900;28;20509;-72
2023/06/13 04:59:32;;;;;;;13.77;3.50;;;;;;;;;;5031793;28;20100;-71
2023/06/13 05:01:58;;;;;;;9.57;3.97;;;;;;;;;;5034062;28;20443;-72
2023/06/13 05:04:25;;;;;;;11.27;4.10;;;;;;;;;;5032917;28;20029;-72
2023/06/13 05:06:50;;;;;;;9.07;3.92;;;;;;;;;;5031947;28;20022;-73
2023/06/13 05:09:17;;;;;;;8.77;3.55;;;;;;;;;;5031978;28;20037;-72
2023/06/13 05:11:43;;;;;;;8.20;4.00;;;;;;;;;;5032635;28;20021;-74
2023/06/13 05:14:09;;;;;;;13.50;4.00;;;;;;;;;;5033379;28;20029;-71
2023/06/13 05:16:35;;;;;;;8.98;3.55;;;;;;;;;;5032197;28;20510;-73
2023/06/13 05:19:01;;;;;;;7.95;3.40;;;;;;;;;;5034923;28;20104;-76
2023/06/13 05:21:29;;;;;;;7.18;2.88;;;;;;;;;;5031495;28;20033;-71
2023/06/13 05:23:56;;;;;;;16.52;4.72;;;;;;;;;;5035146;28;20145;-71
2023/06/13 05:26:22;;;;;;;10.68;3.53;;;;;;;;;;5035298;28;20026;-74
2023/06/13 05:28:48;;;;;;;19.15;4.30;;;;;;;;;;5033948;28;20056;-74
2023/06/13 05:31:14;;;;;;;13.95;4.63;;;;;;;;;;5036127;28;20107;-72
2023/06/13 05:33:40;;;;;;;16.35;3.50;;;;;;;;;;5030434;28;20033;-73
2023/06/13 05:36:06;;;;;;;16.75;3.92;;;;;;;;;;5036371;28;20096;-71
2023/06/13 05:38:32;;;;;;;12.68;4.25;;;;;;;;;;5039901;28;20117;-73
2023/06/13 05:40:59;;;;;;;10.77;3.65;;;;;;;;;;5029421;28;20029;-71
2023/06/13 05:43:25;;;;;;;13.00;3.53;;;;;;;;;;5032310;28;20561;-76
2023/06/13 05:45:51;;;;;;;12.60;3.75;;;;;;;;;;5031131;28;20081;-72
2023/06/13 05:48:17;;;;;;;17.48;3.72;;;;;;;;;;5030936;28;20026;-72
2023/06/13 05:50:43;;;;;;;14.18;3.78;;;;;;;;;;5036200;28;20135;-74
2023/06/13 05:53:09;;;;;;;11.80;3.85;;;;;;;;;;5036809;28;20093;-70
2023/06/13 05:55:35;;;;;;;14.38;4.00;;;;;;;;;;5038265;28;20104;-73
2023/06/13 05:58:00;;;;;;;17.00;3.80;;;;;;;;;;5032998;28;20080;-74
2023/06/13 06:00:26;;;;;;;13.95;4.22;;;;;;;;;;5038749;28;20410;-72
2023/06/13 06:02:53;;;;;;;10.13;3.20;;;;;;;;;;5035671;28;20019;-77
2023/06/13 06:05:19;;;;;;;9.82;3.42;;;;;;;;;;5037618;28;20018;-73
2023/06/13 06:07:46;;;;;;;14.15;3.40;;;;;;;;;;5042757;28;20304;-72
2023/06/13 06:10:12;;;;;;;9.68;3.60;;;;;;;;;;5034949;28;20057;-72
2023/06/13 06:12:38;;;;;;;13.45;2.90;;;;;;;;;;5034689;28;20029;-71
2023/06/13 06:15:05;;;;;;;9.40;3.60;;;;;;;;;;5035964;28;20026;-72
2023/06/13 06:17:31;;;;;;;16.33;3.40;;;;;;;;;;5036507;28;20033;-72
2023/06/13 06:19:57;;;;;;;9.45;3.03;;;;;;;;;;5036216;28;20513;-72
2023/06/13 06:22:23;;;;;;;13.18;2.67;;;;;;;;;;5034792;28;20108;-71
2023/06/13 06:24:49;;;;;;;11.65;2.88;;;;;;;;;;5053801;28;20066;-72
2023/06/13 06:27:15;;;;;;;11.88;3.20;;;;;;;;;;5054829;28;20135;-76
2023/06/13 06:29:44;;;;;;;16.23;3.00;;;;;;;;;;5054706;28;20029;-75
2023/06/13 06:32:10;;;;;;;10.93;3.05;;;;;;;;;;5054155;28;20025;-76
2023/06/13 06:34:36;;;;;;;6.93;2.33;;;;;;;;;;5054300;28;20082;-71
2023/06/13 06:37:03;;;;;;;8.55;2.90;;;;;;;;;;5054624;28;20483;-71
2023/06/13 06:39:30;;;;;;;8.82;2.58;;;;;;;;;;5056589;28;20378;-79
2023/06/13 06:41:56;;;;;;;5.22;2.40;;;;;;;;;;5055725;28;20025;-74
2023/06/13 06:44:22;;;;;;;10.35;2.63;;;;;;;;;;5055143;28;20025;-71
2023/06/13 06:46:48;;;;;;;8.98;2.80;;;;;;;;;;5055199;28;20033;-72
2023/06/13 06:49:13;;;;;;;10.35;2.88;;;;;;;;;;5051652;28;20025;-72
2023/06/13 06:51:40;;;;;;;9.25;3.13;;;;;;;;;;5052695;28;20508;-72
2023/06/13 06:54:05;;;;;;;15.30;5.15;;;;;;;;;;5052039;28;20033;-71
2023/06/13 06:56:32;;;;;;;6.18;2.60;;;;;;;;;;5054589;28;20043;-72
2023/06/13 06:58:58;;;;;;;19.77;8.05;;;;;;;;;;5054520;28;20079;-71
2023/06/13 07:01:24;;;;;;;14.77;3.05;;;;;;;;;;5055221;28;20733;-72
2023/06/13 07:03:50;;;;;;;10.80;2.72;;;;;;;;;;5055209;28;20029;-72
2023/06/13 07:06:16;;;;;;;12.25;3.88;;;;;;;;;;5053272;28;20056;-71
2023/06/13 07:08:42;;;;;;;11.85;2.80;;;;;;;;;;5053438;28;20431;-72
2023/06/13 07:11:08;;;;;;;5.70;2.60;;;;;;;;;;5051793;28;20096;-72
2023/06/13 07:13:34;;;;;;;8.43;2.92;;;;;;;;;;5052113;28;20029;-72
2023/06/13 07:16:00;;;;;;;18.17;3.80;;;;;;;;;;5052663;28;20060;-72
2023/06/13 07:18:29;;;;;;;13.73;3.95;;;;;;;;;;5053089;28;20056;-71
2023/06/13 07:20:55;;;;;;;18.13;5.75;;;;;;;;;;5052323;28;20021;-71
2023/06/13 07:23:21;;;;;;;16.80;2.80;;;;;;;;;;5051725;28;20021;-72
2023/06/13 07:25:47;;;;;;;9.38;3.20;;;;;;;;;;5052529;28;20479;-71
2023/06/13 07:28:13;;;;;;;12.57;5.10;;;;;;;;;;5052094;28;20163;-72
2023/06/13 07:30:39;;;;;;;6.55;2.78;;;;;;;;;;5052552;28;20025;-70
2023/06/13 07:33:05;;;;;;;19.02;4.05;;;;;;;;;;5051372;28;20025;-70
2023/06/13 07:35:32;;;;;;;7.60;3.15;;;;;;;;;;5049032;28;20025;-73
2023/06/13 07:37:58;;;;;;;9.32;3.28;;;;;;;;;;5032921;28;20022;-72
2023/06/13 07:40:24;;;;;;;9.73;4.00;;;;;;;;;;5032371;28;20502;-72
2023/06/13 07:42:50;;;;;;;9.88;4.47;;;;;;;;;;5032057;28;20622;-73
2023/06/13 07:45:17;;;;;;;14.10;3.22;;;;;;;;;;5032678;28;20030;-73
2023/06/13 07:47:43;;;;;;;9.00;3.08;;;;;;;;;;5032267;28;20026;-73
2023/06/13 07:50:09;;;;;;;9.80;3.30;;;;;;;;;;5029982;28;20022;-74
2023/06/13 07:52:35;;;;;;;15.10;3.97;;;;;;;;;;5031289;28;20120;-73
2023/06/13 07:55:02;;;;;;;11.75;3.28;;;;;;;;;;5031862;28;20436;-73
2023/06/13 07:57:28;;;;;;;19.80;3.08;;;;;;;;;;5032813;28;20045;-73
2023/06/13 07:59:55;;;;;;;12.13;3.28;;;;;;;;;;5032886;28;20044;-71
2023/06/13 08:02:21;;;;;;;11.65;2.75;;;;;;;;;;5032231;28;20083;-71
2023/06/13 08:04:47;;;;;;;14.48;3.50;;;;;;;;;;5033327;28;20430;-72
2023/06/13 08:07:13;;;;;;;9.82;3.90;;;;;;;;;;5033233;28;20029;-73
2023/06/13 08:09:39;;;;;;;13.07;3.33;;;;;;;;;;5033250;28;20036;-72
2023/06/13 08:12:06;;;;;;;9.80;2.88;;;;;;;;;;5032930;28;20025;-73
2023/06/13 08:14:32;;;;;;;7.43;3.30;;;;;;;;;;5032848;28;20032;-74
2023/06/13 08:16:58;;;;;;;8.05;2.97;;;;;;;;;;5035097;28;20029;-72
2023/06/13 08:19:24;;;;;;;10.32;2.65;;;;;;;;;;5035647;28;20026;-73
2023/06/13 08:21:50;;;;;;;9.60;3.78;;;;;;;;;;5033661;28;20025;-74
2023/06/13 08:24:16;;;;;;;8.75;2.95;;;;;;;;;;5035017;28;20029;-73
2023/06/13 08:26:44;;;;;;;10.82;3.05;;;;;;;;;;5035120;28;20029;-73
2023/06/13 08:29:13;;;;;;;9.30;2.80;;;;;;;;;;5034340;28;20021;-72
2023/06/13 08:31:40;;;;;;;10.60;3.30;;;;;;;;;;5033010;28;20037;-74
2023/06/13 08:34:06;;;;;;;9.10;2.97;;;;;;;;;;5034398;28;20021;-74
2023/06/13 08:36:35;;;;;;;15.90;3.25;;;;;;;;;;5032476;28;20483;-73
2023/06/13 08:39:03;;;;;;;10.23;3.25;;;;;;;;;;5032274;28;20021;-73
2023/06/13 08:41:29;;;;;;;13.27;2.72;;;;;;;;;;5032082;28;20018;-74
2023/06/13 08:43:58;;;;;;;11.70;3.13;;;;;;;;;;5031790;28;20029;-73
2023/06/13 08:46:28;;;;;;;8.00;3.28;;;;;;;;;;5031968;28;20017;-73
2023/06/13 08:48:54;;;;;;;6.30;3.10;;;;;;;;;;5032093;28;20372;-73
2023/06/13 08:51:22;;;;;;;12.10;3.20;;;;;;;;;;5032117;28;20033;-72
2023/06/13 08:53:49;;;;;;;13.75;2.95;;;;;;;;;;5031759;28;20124;-73
2023/06/13 08:56:15;;;;;;;9.95;2.97;;;;;;;;;;5031862;28;20120;-74
2023/06/13 08:58:42;;;;;;;22.63;3.70;;;;;;;;;;5031998;28;20475;-73
2023/06/13 09:01:09;;;;;;;12.40;3.90;;;;;;;;;;5032010;28;20030;-72
2023/06/13 09:03:36;;;;;;;14.40;3.15;;;;;;;;;;5031885;28;20045;-73
2023/06/13 09:06:04;;;;;;;12.35;3.30;;;;;;;;;;5031951;28;20499;-75
2023/06/13 09:08:30;;;;;;;12.45;3.30;;;;;;;;;;5032631;28;20029;-77
2023/06/13 09:10:57;;;;;;;10.95;3.15;;;;;;;;;;5033477;28;20033;-72
2023/06/13 09:13:24;;;;;;;12.05;3.08;;;;;;;;;;5033284;28;20033;-73
2023/06/13 09:15:50;;;;;;;8.10;3.00;;;;;;;;;;5032724;28;20088;-72
2023/06/13 09:18:16;;;;;;;14.05;3.67;;;;;;;;;;5032725;28;20034;-73
2023/06/13 09:20:42;;;;;;;11.60;2.72;;;;;;;;;;5031268;28;20077;-73
2023/06/13 09:23:10;;;;;;;15.90;4.05;;;;;;;;;;5033666;28;20049;-72
2023/06/13 09:25:37;;;;;;;12.85;2.65;;;;;;;;;;5034323;28;20036;-74
2023/06/13 09:28:22;;;;;;;8.88;3.35;;;;;;;;;;5034026;28;20031;-74
2023/06/13 09:30:47;;;;;;;;;;;;;;;;;;5037011;28;20033;-75
2023/06/13 09:33:15;;;;;;;13.02;2.60;;;;;;;;;;5034840;28;19978;-72
2023/06/13 09:35:41;;;;;;;14.05;3.28;;;;;;;;;;5032938;28;20025;-73
2023/06/13 09:38:07;;;;;;;12.30;2.95;;;;;;;;;;5034128;28;20513;-72
2023/06/13 09:40:34;;;;;;;13.15;3.28;;;;;;;;;;5037300;28;20112;-73
2023/06/13 09:43:02;;;;;;;9.63;2.85;;;;;;;;;;5033486;28;20025;-72
2023/06/13 09:45:30;;;;;;;13.35;3.20;;;;;;;;;;5031888;28;20028;-73
2023/06/13 09:47:56;;;;;;;10.85;3.20;;;;;;;;;;5031134;28;20025;-72
2023/06/13 09:50:22;;;;;;;11.35;3.38;;;;;;;;;;5031674;28;20026;-72
2023/06/13 09:52:48;;;;;;;11.52;3.25;;;;;;;;;;5032291;28;20467;-73
2023/06/13 09:55:14;;;;;;;10.30;3.50;;;;;;;;;;5031660;28;20033;-74
2023/06/13 09:57:40;;;;;;;11.85;3.50;;;;;;;;;;5032119;28;20036;-74
2023/06/13 10:00:09;;;;;;;11.40;3.53;;;;;;;;;;5031893;28;20018;-74
2023/06/13 10:02:35;;;;;;;12.25;3.03;;;;;;;;;;5031855;28;20026;-74
2023/06/13 10:05:01;;;;;;;14.38;3.05;;;;;;;;;;5030520;28;20030;-73
2023/06/13 10:07:27;;;;;;;10.77;4.03;;;;;;;;;;5031907;28;20083;-74
2023/06/13 10:09:54;;;;;;;6.53;3.20;;;;;;;;;;5031765;28;20030;-72
2023/06/13 10:12:22;;;;;;;10.75;3.20;;;;;;;;;;5031977;28;20025;-73
2023/06/13 10:14:55;;;;;;;18.92;3.35;;;;;;;;;;5031937;28;20029;-77
2023/06/13 10:17:21;;;;;;;13.32;3.55;;;;;;;;;;5032273;28;20030;-72
2023/06/13 10:19:49;;;;;;;16.88;3.72;;;;;;;;;;5033046;28;20029;-75
2023/06/13 10:22:15;;;;;;;8.35;3.00;;;;;;;;;;5031347;28;20064;-73
2023/06/13 10:24:42;;;;;;;10.82;3.17;;;;;;;;;;5031403;28;20022;-72
2023/06/13 10:27:10;;;;;;;11.77;3.50;;;;;;;;;;5031644;28;20041;-71
2023/06/13 10:29:42;;;;;;;10.05;3.40;;;;;;;;;;5031581;28;20068;-74
2023/06/13 10:32:19;;;;;;;10.60;3.50;;;;;;;;;;5030484;28;20083;-73
2023/06/13 10:35:01;;;;;;;13.60;3.08;;;;;;;;;;5031569;28;20052;-73
2023/06/13 10:37:26;;;;;;;10.48;3.72;;;;;;;;;;5031078;28;20040;-73
2023/06/13 10:39:52;;;;;;;8.88;3.00;;;;;;;;;;5030993;28;20029;-73
2023/06/13 10:42:36;;;;;;;7.47;3.03;;;;;;;;;;5031144;28;20036;-72
2023/06/13 10:45:11;;;;;;;11.90;3.55;;;;;;;;;;5031579;28;20025;-73
2023/06/13 10:47:38;;;;;;;8.43;3.38;;;;;;;;;;5034892;28;20087;-73
2023/06/13 10:50:04;;;;;;;12.20;3.05;;;;;;;;;;5035204;28;20399;-74
2023/06/13 10:52:31;;;;;;;10.30;4.13;;;;;;;;;;5034450;28;20383;-73
2023/06/13 10:54:58;;;;;;;16.35;3.92;;;;;;;;;;5034448;28;20071;-74
2023/06/13 10:57:44;;;;;;;13.63;3.10;;;;;;;;;;5034407;28;20025;-73
2023/06/13 11:00:30;;;;;;;15.40;3.20;;;;;;;;;;5034287;28;20138;-73
2023/06/13 11:03:00;;;;;;;8.55;3.05;;;;;;;;;;5034132;28;20478;-74
2023/06/13 11:05:26;;;;;;;11.32;4.03;;;;;;;;;;5034281;28;20029;-73
2023/06/13 11:07:56;;;;;;;8.23;3.63;;;;;;;;;;5033751;28;20026;-73
2023/06/13 11:10:24;;;;;;;14.32;3.60;;;;;;;;;;5034862;28;20029;-74
2023/06/13 11:12:53;;;;;;;13.70;3.45;;;;;;;;;;5034180;28;20021;-73
2023/06/13 11:15:26;;;;;;;17.55;3.67;;;;;;;;;;5034949;28;20068;-71
2023/06/13 11:18:07;;;;;;;9.88;3.65;;;;;;;;;;5035345;28;20017;-73
2023/06/13 11:20:34;;;;;;;10.68;3.80;;;;;;;;;;5033710;28;20447;-73
2023/06/13 11:23:00;;;;;;;11.23;3.45;;;;;;;;;;5033554;28;20088;-72
2023/06/13 11:25:26;;;;;;;11.07;3.75;;;;;;;;;;5033362;28;20033;-73
2023/06/13 11:27:52;;;;;;;12.07;3.85;;;;;;;;;;5034810;28;20025;-72
2023/06/13 11:30:18;;;;;;;7.35;3.40;;;;;;;;;;5034002;28;20061;-73
2023/06/13 11:32:44;;;;;;;11.95;3.72;;;;;;;;;;5033432;28;20538;-72
2023/06/13 11:35:13;;;;;;;12.15;3.70;;;;;;;;;;5033567;28;20037;-73
2023/06/13 11:37:46;;;;;;;10.50;3.53;;;;;;;;;;5033474;28;20109;-73
2023/06/13 11:40:15;;;;;;;11.50;4.15;;;;;;;;;;5033745;28;20029;-73
2023/06/13 11:42:41;;;;;;;9.15;3.83;;;;;;;;;;5033922;28;20029;-73
2023/06/13 11:45:07;;;;;;;14.93;4.10;;;;;;;;;;5033547;28;20029;-73
2023/06/13 11:47:33;;;;;;;10.25;3.60;;;;;;;;;;5033471;28;20057;-73
2023/06/13 11:49:59;;;;;;;12.68;3.63;;;;;;;;;;5033661;28;20355;-73
2023/06/13 11:52:26;;;;;;;15.23;4.38;;;;;;;;;;5033453;28;20368;-72
2023/06/13 11:54:52;;;;;;;14.90;3.53;;;;;;;;;;5034200;28;20152;-75
2023/06/13 11:57:18;;;;;;;16.52;3.88;;;;;;;;;;5033556;28;20028;-73
2023/06/13 11:59:44;;;;;;;11.18;4.40;;;;;;;;;;5033513;28;20136;-74
2023/06/13 12:02:13;;;;;;;10.30;3.72;;;;;;;;;;5032824;28;20036;-72
2023/06/13 12:04:42;;;;;;;16.35;3.95;;;;;;;;;;5034916;28;20077;-74
2023/06/13 12:07:08;;;;;;;11.30;3.88;;;;;;;;;;5035490;28;20062;-72
2023/06/13 12:09:34;;;;;;;10.82;4.38;;;;;;;;;;5033902;28;20037;-74
2023/06/13 12:12:01;;;;;;;11.23;4.07;;;;;;;;;;5033882;28;20045;-73
2023/06/13 12:14:28;;;;;;;13.70;4.45;;;;;;;;;;5034034;28;20065;-74
2023/06/13 12:16:55;;;;;;;15.43;3.47;;;;;;;;;;5033747;28;20113;-72
2023/06/13 12:19:21;;;;;;;10.15;3.97;;;;;;;;;;5033594;28;20487;-73
2023/06/13 12:21:49;;;;;;;14.95;3.72;;;;;;;;;;5031981;28;20041;-73
2023/06/13 12:24:16;;;;;;;16.10;3.83;;;;;;;;;;5032587;28;20026;-74
2023/06/13 12:26:44;;;;;;;15.38;3.78;;;;;;;;;;5032445;28;20022;-74
2023/06/13 12:29:11;;;;;;;15.65;4.00;;;;;;;;;;5032422;28;20018;-74
2023/06/13 12:31:43;;;;;;;9.70;3.75;;;;;;;;;;5033004;28;20081;-72
2023/06/13 12:34:10;;;;;;;12.30;3.70;;;;;;;;;;5033718;28;20021;-74
2023/06/13 12:36:44;;;;;;;13.18;3.70;;;;;;;;;;5033709;28;20049;-73
2023/06/13 12:39:10;;;;;;;8.45;3.47;;;;;;;;;;5033772;28;20033;-72
2023/06/13 12:41:38;;;;;;;18.10;3.78;;;;;;;;;;5033056;28;20503;-72
2023/06/13 12:44:06;;;;;;;8.15;3.63;;;;;;;;;;5032748;28;20099;-72
2023/06/13 12:46:38;;;;;;;10.77;3.92;;;;;;;;;;5033806;28;20018;-73
2023/06/13 12:49:06;;;;;;;10.88;3.58;;;;;;;;;;5033869;28;20017;-73
2023/06/13 12:51:32;;;;;;;11.30;4.03;;;;;;;;;;5032072;28;20025;-74
2023/06/13 12:54:09;;;;;;;12.77;3.45;;;;;;;;;;5032618;28;20467;-73
2023/06/13 12:56:34;;;;;;;21.00;3.35;;;;;;;;;;5033717;28;20036;-73
2023/06/13 12:59:01;;;;;;;7.90;3.08;;;;;;;;;;5033995;28;20033;-73
2023/06/13 13:01:27;;;;;;;8.85;3.20;;;;;;;;;;5034139;28;20052;-73
2023/06/13 13:03:53;;;;;;;11.88;3.40;;;;;;;;;;5033735;28;20474;-73
2023/06/13 13:06:19;;;;;;;15.18;3.35;;;;;;;;;;5033023;28;20040;-74
2023/06/13 13:08:45;;;;;;;9.15;3.38;;;;;;;;;;5032049;28;20032;-74
2023/06/13 13:11:11;;;;;;;13.73;3.58;;;;;;;;;;5033686;28;20017;-74
2023/06/13 13:13:37;;;;;;;9.07;3.83;;;;;;;;;;5036768;28;20032;-73
2023/06/13 13:16:03;;;;;;;10.73;3.50;;;;;;;;;;5032831;28;20029;-74
2023/06/13 13:18:29;;;;;;;14.50;3.60;;;;;;;;;;5032438;28;20022;-77
2023/06/13 13:20:55;;;;;;;8.77;3.25;;;;;;;;;;5031749;28;20025;-71
2023/06/13 13:23:21;;;;;;;14.40;3.85;;;;;;;;;;5031214;28;20049;-74
2023/06/13 13:25:47;;;;;;;7.60;3.20;;;;;;;;;;5032896;28;20017;-73
2023/06/13 13:28:13;;;;;;;12.27;3.00;;;;;;;;;;5033825;28;20079;-76
2023/06/13 13:30:39;;;;;;;8.60;3.30;;;;;;;;;;5032773;28;20033;-75
2023/06/13 13:33:05;;;;;;;10.27;3.83;;;;;;;;;;5032672;28;20026;-72
2023/06/13 13:35:31;;;;;;;10.77;3.45;;;;;;;;;;5032072;28;20075;-72
2023/06/13 13:37:57;;;;;;;14.38;2.97;;;;;;;;;;5032142;28;20037;-71
2023/06/13 13:40:24;;;;;;;10.88;3.13;;;;;;;;;;5030406;28;20040;-74
2023/06/13 13:42:50;;;;;;;16.55;3.35;;;;;;;;;;5031734;28;20100;-71
2023/06/13 13:45:16;;;;;;;19.42;2.75;;;;;;;;;;5031980;28;20079;-76
2023/06/13 13:47:42;;;;;;;19.02;3.33;;;;;;;;;;5032324;28;20127;-74
2023/06/13 13:50:08;;;;;;;22.00;3.38;;;;;;;;;;5035943;28;20021;-76
2023/06/13 13:52:34;;;;;;;11.48;2.70;;;;;;;;;;5032548;28;20021;-75
2023/06/13 13:55:00;;;;;;;10.40;3.60;;;;;;;;;;5034286;28;20053;-75
2023/06/13 13:57:26;;;;;;;11.02;3.28;;;;;;;;;;5032902;28;20074;-74
2023/06/13 13:59:53;;;;;;;8.13;3.03;;;;;;;;;;5035268;28;20030;-74
2023/06/13 14:02:19;;;;;;;14.00;3.50;;;;;;;;;;5032399;28;20026;-73
2023/06/13 14:04:45;;;;;;;15.57;3.42;;;;;;;;;;5031453;28;20029;-74
2023/06/13 14:07:11;;;;;;;5.70;3.00;;;;;;;;;;5033269;28;20029;-74
2023/06/13 14:09:37;;;;;;;10.38;3.60;;;;;;;;;;5033930;28;20030;-76
2023/06/13 14:12:03;;;;;;;10.77;2.97;;;;;;;;;;5032394;28;20032;-75
2023/06/13 14:14:29;;;;;;;20.05;6.60;;;;;;;;;;5032299;28;20034;-74
2023/06/13 14:16:55;;;;;;;14.55;4.20;;;;;;;;;;5032750;28;20029;-76
2023/06/13 14:19:21;;;;;;;17.15;4.40;;;;;;;;;;5032046;28;20026;-73
2023/06/13 14:21:47;;;;;;;11.48;4.53;;;;;;;;;;5034981;28;20033;-73
2023/06/13 14:24:13;;;;;;;16.83;3.40;;;;;;;;;;5035367;28;20021;-75
2023/06/13 14:26:39;;;;;;;12.52;3.22;;;;;;;;;;5040883;28;20021;-80
2023/06/13 14:29:05;;;;;;;16.95;3.13;;;;;;;;;;5037900;28;20030;-78
2023/06/13 14:31:31;;;;;;;18.38;3.00;;;;;;;;;;5036829;28;20036;-76
2023/06/13 14:33:57;;;;;;;25.55;4.85;;;;;;;;;;5034838;28;20041;-75
2023/06/13 14:36:23;;;;;;;16.13;2.67;;;;;;;;;;5035081;28;20075;-76